METAR Data
IDs: Format: Raw Decoded Include TAF

Data at: 0045 UTC 01 Mar 2021

KANE 282345Z 28016G23KT 10SM CLR M03/M09 A2995